UAL34 PGUM-RPVM
Flight info
| Callsign | UAL34 |
|---|---|
| Flight time | 2h 28m |
| Altitude | 34000 |
| Route | UNZ G467 ACRON DCT KERNE DCT 12N134E DCT 12E30 DCT TAC DCT LARYO LARYO3N |
| Aircraft | B738/M-SDE2E3FGHIRWXY/LB1 |
Departure
| Time | 2026-04-21 20:04 |
|---|---|
| Airport | Antonio B. Won Pat International Airport (PGUM) |
Arrival
| Time | 2026-04-21 22:32 |
|---|---|
| Airport | Mactan Cebu International Airport (RPVM) |
| Time | Latitude | Longitude | Altitude | Speed | Heading |
|---|---|---|---|---|---|
| 2026-04-21 19:33 | 13.49355 | 144.80894 | 298 ft | 0 kts | 333° |
| 2026-04-21 19:54 | 13.49344 | 144.80899 | 300 ft | 3 kts | 333° |
| 2026-04-21 19:54 | 13.49326 | 144.80909 | 296 ft | 3 kts | 333° |
| 2026-04-21 19:55 | 13.49315 | 144.80914 | 296 ft | 1 kts | 255° |
| 2026-04-21 19:55 | 13.49315 | 144.80915 | 298 ft | 0 kts | 238° |
| 2026-04-21 19:57 | 13.49310 | 144.80907 | 300 ft | 4 kts | 237° |
| 2026-04-21 19:57 | 13.49286 | 144.80870 | 300 ft | 9 kts | 237° |
| 2026-04-21 19:58 | 13.49240 | 144.80806 | 298 ft | 13 kts | 222° |
| 2026-04-21 19:58 | 13.49175 | 144.80745 | 296 ft | 13 kts | 240° |
| 2026-04-21 19:58 | 13.49132 | 144.80667 | 295 ft | 12 kts | 240° |
| 2026-04-21 19:58 | 13.49090 | 144.80592 | 298 ft | 12 kts | 240° |
| 2026-04-21 19:59 | 13.49052 | 144.80516 | 299 ft | 13 kts | 241° |
| 2026-04-21 19:59 | 13.48999 | 144.80413 | 296 ft | 19 kts | 234° |
| 2026-04-21 19:59 | 13.48895 | 144.80299 | 297 ft | 25 kts | 226° |
| 2026-04-21 19:59 | 13.48835 | 144.80198 | 295 ft | 24 kts | 247° |
| 2026-04-21 20:00 | 13.48768 | 144.80048 | 295 ft | 23 kts | 244° |
| 2026-04-21 20:00 | 13.48704 | 144.79903 | 294 ft | 22 kts | 245° |
| 2026-04-21 20:00 | 13.48640 | 144.79765 | 288 ft | 21 kts | 244° |
| 2026-04-21 20:00 | 13.48576 | 144.79631 | 288 ft | 20 kts | 246° |
| 2026-04-21 20:01 | 13.48514 | 144.79491 | 288 ft | 23 kts | 245° |
| 2026-04-21 20:01 | 13.48448 | 144.79343 | 286 ft | 22 kts | 245° |
| 2026-04-21 20:01 | 13.48381 | 144.79201 | 284 ft | 22 kts | 245° |
| 2026-04-21 20:01 | 13.48314 | 144.79048 | 288 ft | 24 kts | 246° |
| 2026-04-21 20:02 | 13.48240 | 144.78888 | 284 ft | 26 kts | 244° |
| 2026-04-21 20:02 | 13.48161 | 144.78718 | 285 ft | 27 kts | 245° |
| 2026-04-21 20:02 | 13.48079 | 144.78535 | 284 ft | 30 kts | 245° |
| 2026-04-21 20:02 | 13.47982 | 144.78320 | 284 ft | 37 kts | 245° |
| 2026-04-21 20:03 | 13.47890 | 144.78136 | 279 ft | 20 kts | 214° |
| 2026-04-21 20:03 | 13.47799 | 144.78178 | 265 ft | 12 kts | 81° |
| 2026-04-21 20:03 | 13.47865 | 144.78338 | 266 ft | 54 kts | 64° |
| 2026-04-21 20:03 | 13.48122 | 144.78902 | 273 ft | 119 kts | 65° |
| 2026-04-21 20:04 | 13.48555 | 144.79848 | 313 ft | 169 kts | 65° |
| 2026-04-21 20:04 | 13.49024 | 144.80964 | 957 ft | 171 kts | 66° |
| 2026-04-21 20:04 | 13.49523 | 144.82092 | 1711 ft | 174 kts | 64° |
| 2026-04-21 20:04 | 13.50242 | 144.83118 | 2236 ft | 190 kts | 36° |
| 2026-04-21 20:05 | 13.51558 | 144.83571 | 2466 ft | 216 kts | 2° |
| 2026-04-21 20:05 | 13.53070 | 144.83132 | 2726 ft | 240 kts | 329° |
| 2026-04-21 20:05 | 13.54230 | 144.81838 | 3146 ft | 259 kts | 298° |
| 2026-04-21 20:05 | 13.54645 | 144.80007 | 3720 ft | 271 kts | 268° |
| 2026-04-21 20:06 | 13.54115 | 144.78158 | 4500 ft | 272 kts | 236° |
| 2026-04-21 20:06 | 13.52766 | 144.76833 | 5270 ft | 272 kts | 207° |
| 2026-04-21 20:06 | 13.51030 | 144.75997 | 5955 ft | 278 kts | 202° |
| 2026-04-21 20:06 | 13.49259 | 144.75172 | 6690 ft | 281 kts | 203° |
| 2026-04-21 20:07 | 13.47499 | 144.74269 | 7419 ft | 285 kts | 211° |
| 2026-04-21 20:07 | 13.46142 | 144.72783 | 8091 ft | 292 kts | 245° |
| 2026-04-21 20:07 | 13.45716 | 144.70788 | 8825 ft | 292 kts | 271° |
| 2026-04-21 20:07 | 13.45848 | 144.68664 | 9546 ft | 296 kts | 276° |
| 2026-04-21 20:08 | 13.46044 | 144.66547 | 10298 ft | 297 kts | 276° |
| 2026-04-21 20:08 | 13.46283 | 144.64451 | 10856 ft | 305 kts | 277° |
| 2026-04-21 20:08 | 13.46547 | 144.62219 | 11032 ft | 325 kts | 277° |
| 2026-04-21 20:08 | 13.46859 | 144.59844 | 11195 ft | 345 kts | 277° |
| 2026-04-21 20:09 | 13.47128 | 144.57327 | 11332 ft | 365 kts | 276° |
| 2026-04-21 20:09 | 13.47403 | 144.54664 | 11483 ft | 384 kts | 276° |
| 2026-04-21 20:09 | 13.47685 | 144.51887 | 11624 ft | 399 kts | 276° |
| 2026-04-21 20:09 | 13.47970 | 144.49021 | 11895 ft | 404 kts | 276° |
| 2026-04-21 20:10 | 13.48272 | 144.46132 | 12282 ft | 408 kts | 276° |
| 2026-04-21 20:10 | 13.48588 | 144.43231 | 12747 ft | 411 kts | 276° |
| 2026-04-21 20:10 | 13.48877 | 144.40318 | 13336 ft | 410 kts | 276° |
| 2026-04-21 20:10 | 13.49156 | 144.37388 | 13802 ft | 413 kts | 276° |
| 2026-04-21 20:11 | 13.49446 | 144.34447 | 14277 ft | 415 kts | 276° |
| 2026-04-21 20:11 | 13.49752 | 144.31488 | 14703 ft | 418 kts | 276° |
| 2026-04-21 20:11 | 13.50059 | 144.28513 | 15112 ft | 420 kts | 276° |
| 2026-04-21 20:11 | 13.50366 | 144.25526 | 15544 ft | 422 kts | 276° |
| 2026-04-21 20:12 | 13.50671 | 144.22519 | 15994 ft | 423 kts | 276° |
| 2026-04-21 20:12 | 13.50976 | 144.19500 | 16405 ft | 425 kts | 276° |
| 2026-04-21 20:12 | 13.51280 | 144.16478 | 16802 ft | 427 kts | 276° |
| 2026-04-21 20:12 | 13.51585 | 144.13436 | 17170 ft | 429 kts | 276° |
| 2026-04-21 20:13 | 13.51891 | 144.10377 | 17568 ft | 431 kts | 276° |
| 2026-04-21 20:13 | 13.52200 | 144.07302 | 17961 ft | 432 kts | 276° |
| 2026-04-21 20:13 | 13.52508 | 144.04228 | 18322 ft | 434 kts | 276° |
| 2026-04-21 20:13 | 13.52817 | 144.01135 | 18639 ft | 437 kts | 276° |
| 2026-04-21 20:14 | 13.53128 | 143.98017 | 18946 ft | 440 kts | 276° |
| 2026-04-21 20:14 | 13.53440 | 143.94887 | 19256 ft | 442 kts | 276° |
| 2026-04-21 20:14 | 13.53753 | 143.91738 | 19578 ft | 443 kts | 276° |
| 2026-04-21 20:14 | 13.54066 | 143.88579 | 19891 ft | 445 kts | 276° |
| 2026-04-21 20:15 | 13.54381 | 143.85409 | 20150 ft | 447 kts | 276° |
| 2026-04-21 20:15 | 13.54697 | 143.82222 | 20414 ft | 449 kts | 276° |
| 2026-04-21 20:15 | 13.55012 | 143.79027 | 20676 ft | 451 kts | 276° |
| 2026-04-21 20:15 | 13.55326 | 143.75849 | 20927 ft | 453 kts | 276° |
| 2026-04-21 20:16 | 13.55645 | 143.72621 | 21195 ft | 454 kts | 276° |
| 2026-04-21 20:16 | 13.55964 | 143.69386 | 21442 ft | 456 kts | 276° |
| 2026-04-21 20:16 | 13.56283 | 143.66141 | 21658 ft | 458 kts | 276° |
| 2026-04-21 20:16 | 13.56608 | 143.62832 | 21868 ft | 460 kts | 276° |
| 2026-04-21 20:17 | 13.56924 | 143.59607 | 22079 ft | 462 kts | 276° |
| 2026-04-21 20:17 | 13.57247 | 143.56310 | 22299 ft | 463 kts | 276° |
| 2026-04-21 20:17 | 13.57570 | 143.53020 | 22519 ft | 464 kts | 276° |
| 2026-04-21 20:17 | 13.57892 | 143.49716 | 22697 ft | 466 kts | 276° |
| 2026-04-21 20:18 | 13.58110 | 143.47479 | 22815 ft | 467 kts | 276° |
| 2026-04-21 20:18 | 13.58539 | 143.43072 | 23058 ft | 469 kts | 276° |
| 2026-04-21 20:18 | 13.58864 | 143.39733 | 23244 ft | 470 kts | 276° |
| 2026-04-21 20:18 | 13.59189 | 143.36395 | 23418 ft | 471 kts | 276° |
| 2026-04-21 20:19 | 13.59515 | 143.33037 | 23592 ft | 472 kts | 276° |
| 2026-04-21 20:19 | 13.59842 | 143.29669 | 23767 ft | 473 kts | 276° |
| 2026-04-21 20:19 | 13.60168 | 143.26303 | 23921 ft | 475 kts | 276° |
| 2026-04-21 20:19 | 13.60495 | 143.22916 | 24061 ft | 476 kts | 276° |
| 2026-04-21 20:20 | 13.60822 | 143.19524 | 24199 ft | 477 kts | 276° |
| 2026-04-21 20:20 | 13.61148 | 143.16138 | 24354 ft | 478 kts | 276° |
| 2026-04-21 20:20 | 13.61476 | 143.12730 | 24510 ft | 479 kts | 276° |
| 2026-04-21 20:20 | 13.61803 | 143.09327 | 24630 ft | 480 kts | 276° |
| 2026-04-21 20:21 | 13.62073 | 143.05898 | 24757 ft | 482 kts | 271° |
| 2026-04-21 20:21 | 13.61890 | 143.02458 | 24890 ft | 484 kts | 263° |
| 2026-04-21 20:21 | 13.61241 | 142.99111 | 25030 ft | 485 kts | 254° |
| 2026-04-21 20:21 | 13.60193 | 142.95812 | 25164 ft | 486 kts | 252° |
| 2026-04-21 20:22 | 13.59097 | 142.92527 | 25288 ft | 487 kts | 252° |
| 2026-04-21 20:22 | 13.56887 | 142.85922 | 25515 ft | 489 kts | 252° |
| 2026-04-21 20:22 | 13.55796 | 142.82608 | 25642 ft | 490 kts | 252° |
| 2026-04-21 20:23 | 13.54715 | 142.79297 | 25771 ft | 490 kts | 252° |
| 2026-04-21 20:23 | 13.53634 | 142.75965 | 25876 ft | 491 kts | 252° |
| 2026-04-21 20:23 | 13.52554 | 142.72628 | 25980 ft | 492 kts | 252° |
| 2026-04-21 20:23 | 13.51465 | 142.69254 | 26098 ft | 493 kts | 252° |
| 2026-04-21 20:24 | 13.50400 | 142.65956 | 26270 ft | 492 kts | 252° |
| 2026-04-21 20:24 | 13.49320 | 142.62621 | 26461 ft | 491 kts | 252° |
| 2026-04-21 20:24 | 13.48244 | 142.59295 | 26641 ft | 491 kts | 252° |
| 2026-04-21 20:24 | 13.47167 | 142.55970 | 26783 ft | 491 kts | 252° |
| 2026-04-21 20:25 | 13.46088 | 142.52641 | 26920 ft | 491 kts | 252° |
| 2026-04-21 20:25 | 13.45009 | 142.49315 | 27094 ft | 491 kts | 252° |
| 2026-04-21 20:25 | 13.43930 | 142.45992 | 27310 ft | 490 kts | 252° |
| 2026-04-21 20:25 | 13.42856 | 142.42687 | 27503 ft | 489 kts | 252° |
| 2026-04-21 20:26 | 13.41779 | 142.39372 | 27674 ft | 489 kts | 252° |
| 2026-04-21 20:26 | 13.40702 | 142.36059 | 27847 ft | 489 kts | 252° |
| 2026-04-21 20:26 | 13.39623 | 142.32742 | 28048 ft | 488 kts | 252° |
| 2026-04-21 20:26 | 13.38549 | 142.29441 | 28253 ft | 488 kts | 252° |
| 2026-04-21 20:27 | 13.37473 | 142.26137 | 28448 ft | 487 kts | 252° |
| 2026-04-21 20:27 | 13.36400 | 142.22845 | 28634 ft | 487 kts | 252° |
| 2026-04-21 20:27 | 13.35323 | 142.19539 | 28832 ft | 487 kts | 252° |
| 2026-04-21 20:27 | 13.34248 | 142.16244 | 29050 ft | 486 kts | 252° |
| 2026-04-21 20:28 | 13.33178 | 142.12962 | 29254 ft | 486 kts | 252° |
| 2026-04-21 20:28 | 13.32105 | 142.09676 | 29440 ft | 485 kts | 252° |
| 2026-04-21 20:28 | 13.31030 | 142.06384 | 29624 ft | 486 kts | 252° |
| 2026-04-21 20:28 | 13.29956 | 142.03096 | 29826 ft | 485 kts | 252° |
| 2026-04-21 20:29 | 13.28885 | 141.99819 | 30060 ft | 484 kts | 252° |
| 2026-04-21 20:29 | 13.27815 | 141.96546 | 30266 ft | 484 kts | 252° |
| 2026-04-21 20:29 | 13.26740 | 141.93259 | 30449 ft | 485 kts | 252° |
| 2026-04-21 20:29 | 13.25666 | 141.89980 | 30647 ft | 484 kts | 252° |
| 2026-04-21 20:30 | 13.24595 | 141.86709 | 30870 ft | 484 kts | 252° |
| 2026-04-21 20:30 | 13.23524 | 141.83445 | 31114 ft | 482 kts | 252° |
| 2026-04-21 20:30 | 13.22468 | 141.80221 | 31258 ft | 484 kts | 252° |
| 2026-04-21 20:30 | 13.21375 | 141.76897 | 31462 ft | 484 kts | 252° |
| 2026-04-21 20:31 | 13.20306 | 141.73622 | 31769 ft | 483 kts | 252° |
| 2026-04-21 20:31 | 13.19255 | 141.70408 | 32061 ft | 481 kts | 252° |
| 2026-04-21 20:31 | 13.18188 | 141.67160 | 32264 ft | 481 kts | 252° |
| 2026-04-21 20:31 | 13.17117 | 141.63905 | 32420 ft | 482 kts | 252° |
| 2026-04-21 20:32 | 13.16047 | 141.60653 | 32612 ft | 482 kts | 252° |
| 2026-04-21 20:32 | 13.14974 | 141.57394 | 32849 ft | 481 kts | 252° |
| 2026-04-21 20:32 | 13.13906 | 141.54149 | 33083 ft | 480 kts | 252° |
| 2026-04-21 20:32 | 13.12837 | 141.50905 | 33284 ft | 480 kts | 252° |
| 2026-04-21 20:33 | 13.11772 | 141.47667 | 33470 ft | 481 kts | 252° |
| 2026-04-21 20:33 | 13.10703 | 141.44420 | 33711 ft | 480 kts | 252° |
| 2026-04-21 20:33 | 13.09635 | 141.41181 | 33953 ft | 478 kts | 252° |
| 2026-04-21 20:33 | 13.08564 | 141.37934 | 33932 ft | 481 kts | 252° |
| 2026-04-21 20:34 | 13.06420 | 141.31441 | 33946 ft | 480 kts | 252° |
| 2026-04-21 20:34 | 13.04287 | 141.24985 | 33959 ft | 477 kts | 252° |
| 2026-04-21 20:35 | 13.02161 | 141.18552 | 33954 ft | 476 kts | 252° |
| 2026-04-21 20:35 | 13.00036 | 141.12130 | 33953 ft | 475 kts | 252° |
| 2026-04-21 20:36 | 12.97916 | 141.05731 | 33954 ft | 474 kts | 252° |
| 2026-04-21 20:36 | 12.95789 | 140.99316 | 33957 ft | 475 kts | 252° |
| 2026-04-21 20:37 | 12.93657 | 140.92892 | 33951 ft | 477 kts | 252° |
| 2026-04-21 20:37 | 12.91518 | 140.86455 | 33952 ft | 478 kts | 252° |
| 2026-04-21 20:38 | 12.89385 | 140.80036 | 33955 ft | 480 kts | 252° |
| 2026-04-21 20:38 | 12.87229 | 140.73556 | 33946 ft | 481 kts | 252° |
| 2026-04-21 20:39 | 12.85066 | 140.67063 | 33937 ft | 482 kts | 251° |
| 2026-04-21 20:39 | 12.82894 | 140.60548 | 33950 ft | 483 kts | 251° |
| 2026-04-21 20:40 | 12.80723 | 140.54040 | 33948 ft | 483 kts | 251° |
| 2026-04-21 20:40 | 12.78551 | 140.47536 | 33936 ft | 483 kts | 251° |
| 2026-04-21 20:41 | 12.76377 | 140.41032 | 33936 ft | 483 kts | 251° |
| 2026-04-21 20:41 | 12.74201 | 140.34528 | 33951 ft | 482 kts | 251° |
| 2026-04-21 20:42 | 12.72024 | 140.28027 | 33940 ft | 482 kts | 251° |
| 2026-04-21 20:42 | 12.69848 | 140.21535 | 33950 ft | 482 kts | 251° |
| 2026-04-21 20:43 | 12.67668 | 140.15035 | 33937 ft | 482 kts | 251° |
| 2026-04-21 20:43 | 12.65486 | 140.08538 | 33936 ft | 483 kts | 251° |
| 2026-04-21 20:44 | 12.63315 | 140.02076 | 33910 ft | 469 kts | 251° |
| 2026-04-21 20:44 | 12.62272 | 139.98974 | 33916 ft | 454 kts | 251° |
| 2026-04-21 20:44 | 12.61255 | 139.95952 | 33898 ft | 444 kts | 251° |
| 2026-04-21 20:45 | 12.59246 | 139.89984 | 34100 ft | 443 kts | 251° |
| 2026-04-21 20:45 | 12.58253 | 139.87037 | 34245 ft | 444 kts | 251° |
| 2026-04-21 20:45 | 12.57233 | 139.84008 | 34397 ft | 445 kts | 251° |
| 2026-04-21 20:46 | 12.56238 | 139.81056 | 34546 ft | 445 kts | 251° |
| 2026-04-21 20:46 | 12.55227 | 139.78060 | 34698 ft | 446 kts | 251° |
| 2026-04-21 20:46 | 12.54213 | 139.75057 | 34846 ft | 446 kts | 251° |
| 2026-04-21 20:46 | 12.53201 | 139.72057 | 35003 ft | 446 kts | 251° |
| 2026-04-21 20:47 | 12.52189 | 139.69058 | 35140 ft | 447 kts | 251° |
| 2026-04-21 20:47 | 12.51169 | 139.66040 | 35263 ft | 449 kts | 251° |
| 2026-04-21 20:47 | 12.50147 | 139.63014 | 35369 ft | 451 kts | 251° |
| 2026-04-21 20:47 | 12.49120 | 139.59974 | 35543 ft | 452 kts | 251° |
| 2026-04-21 20:48 | 12.48093 | 139.56936 | 35798 ft | 450 kts | 251° |
| 2026-04-21 20:48 | 12.47073 | 139.53924 | 35946 ft | 447 kts | 251° |
| 2026-04-21 20:48 | 12.45389 | 139.48949 | 35940 ft | 445 kts | 251° |
| 2026-04-21 20:49 | 12.43347 | 139.42924 | 35941 ft | 451 kts | 251° |
| 2026-04-21 20:49 | 12.41271 | 139.36801 | 35938 ft | 458 kts | 251° |
| 2026-04-21 20:50 | 12.39170 | 139.30610 | 35936 ft | 464 kts | 251° |
| 2026-04-21 20:50 | 12.37040 | 139.24337 | 35933 ft | 470 kts | 251° |
| 2026-04-21 20:51 | 12.34881 | 139.17984 | 35934 ft | 475 kts | 251° |
| 2026-04-21 20:51 | 12.32706 | 139.11589 | 35927 ft | 478 kts | 251° |
| 2026-04-21 20:52 | 12.30516 | 139.05158 | 35923 ft | 479 kts | 251° |
| 2026-04-21 20:52 | 12.28320 | 138.98715 | 35922 ft | 479 kts | 251° |
| 2026-04-21 20:53 | 12.26130 | 138.92296 | 35926 ft | 478 kts | 251° |
| 2026-04-21 20:53 | 12.23940 | 138.85877 | 35925 ft | 477 kts | 251° |
| 2026-04-21 20:54 | 12.21758 | 138.79490 | 35921 ft | 476 kts | 251° |
| 2026-04-21 20:54 | 12.19575 | 138.73103 | 35925 ft | 475 kts | 251° |
| 2026-04-21 20:55 | 12.17413 | 138.66731 | 35923 ft | 474 kts | 253° |
| 2026-04-21 20:55 | 12.16430 | 138.60103 | 35933 ft | 471 kts | 269° |
| 2026-04-21 20:56 | 12.16293 | 138.53406 | 35925 ft | 471 kts | 269° |
| 2026-04-21 20:56 | 12.16171 | 138.46767 | 35926 ft | 471 kts | 269° |
| 2026-04-21 20:57 | 12.16009 | 138.40089 | 35924 ft | 471 kts | 269° |
| 2026-04-21 20:57 | 12.15821 | 138.33394 | 35913 ft | 471 kts | 269° |
| 2026-04-21 20:58 | 12.15627 | 138.26703 | 35919 ft | 471 kts | 269° |
| 2026-04-21 20:58 | 12.15430 | 138.20007 | 35919 ft | 472 kts | 269° |
| 2026-04-21 20:59 | 12.15232 | 138.13308 | 35915 ft | 472 kts | 269° |
| 2026-04-21 20:59 | 12.15034 | 138.06590 | 35918 ft | 473 kts | 269° |
| 2026-04-21 21:00 | 12.14834 | 137.99875 | 35918 ft | 473 kts | 269° |
| 2026-04-21 21:00 | 12.14631 | 137.93147 | 35917 ft | 474 kts | 269° |
| 2026-04-21 21:01 | 12.14428 | 137.86420 | 35916 ft | 474 kts | 269° |
| 2026-04-21 21:01 | 12.14221 | 137.79694 | 35917 ft | 474 kts | 269° |
| 2026-04-21 21:02 | 12.14013 | 137.72959 | 35915 ft | 474 kts | 269° |
| 2026-04-21 21:02 | 12.13804 | 137.66230 | 35913 ft | 474 kts | 269° |
| 2026-04-21 21:03 | 12.13595 | 137.59501 | 35919 ft | 474 kts | 269° |
| 2026-04-21 21:03 | 12.13385 | 137.52769 | 35915 ft | 474 kts | 269° |
| 2026-04-21 21:04 | 12.13172 | 137.46046 | 35919 ft | 474 kts | 269° |
| 2026-04-21 21:04 | 12.12955 | 137.39306 | 35918 ft | 474 kts | 269° |
| 2026-04-21 21:05 | 12.12739 | 137.32621 | 35916 ft | 474 kts | 269° |
| 2026-04-21 21:05 | 12.12522 | 137.25907 | 35921 ft | 473 kts | 268° |
| 2026-04-21 21:06 | 12.12302 | 137.19189 | 35926 ft | 472 kts | 268° |
| 2026-04-21 21:06 | 12.12082 | 137.12487 | 35928 ft | 471 kts | 268° |
| 2026-04-21 21:07 | 12.11860 | 137.05795 | 35922 ft | 471 kts | 268° |
| 2026-04-21 21:07 | 12.11637 | 136.99108 | 35921 ft | 471 kts | 268° |
| 2026-04-21 21:08 | 12.11412 | 136.92423 | 35915 ft | 471 kts | 268° |
| 2026-04-21 21:08 | 12.11185 | 136.85744 | 35917 ft | 470 kts | 268° |
| 2026-04-21 21:09 | 12.10957 | 136.79075 | 35912 ft | 469 kts | 268° |
| 2026-04-21 21:09 | 12.10728 | 136.72414 | 35919 ft | 469 kts | 268° |
| 2026-04-21 21:10 | 12.10497 | 136.65758 | 35916 ft | 469 kts | 268° |
| 2026-04-21 21:10 | 12.10265 | 136.59100 | 35918 ft | 469 kts | 268° |
| 2026-04-21 21:11 | 12.10031 | 136.52445 | 35916 ft | 469 kts | 268° |
| 2026-04-21 21:11 | 12.09796 | 136.45778 | 35918 ft | 469 kts | 268° |
| 2026-04-21 21:12 | 12.09559 | 136.39124 | 35919 ft | 469 kts | 268° |
| 2026-04-21 21:12 | 12.09321 | 136.32445 | 35918 ft | 470 kts | 268° |
| 2026-04-21 21:13 | 12.09080 | 136.25777 | 35918 ft | 470 kts | 268° |
| 2026-04-21 21:13 | 12.08838 | 136.19136 | 35917 ft | 471 kts | 268° |
| 2026-04-21 21:14 | 12.08592 | 136.12409 | 35917 ft | 471 kts | 268° |
| 2026-04-21 21:14 | 12.08348 | 136.05756 | 35916 ft | 472 kts | 268° |
| 2026-04-21 21:15 | 12.08100 | 135.99047 | 35917 ft | 472 kts | 268° |
| 2026-04-21 21:15 | 12.07850 | 135.92349 | 35918 ft | 472 kts | 268° |
| 2026-04-21 21:16 | 12.07599 | 135.85646 | 35916 ft | 473 kts | 268° |
| 2026-04-21 21:16 | 12.07345 | 135.78932 | 35917 ft | 472 kts | 268° |
| 2026-04-21 21:17 | 12.07091 | 135.72237 | 35919 ft | 472 kts | 268° |
| 2026-04-21 21:17 | 12.06834 | 135.65533 | 35915 ft | 472 kts | 268° |
| 2026-04-21 21:18 | 12.06576 | 135.58837 | 35918 ft | 471 kts | 268° |
| 2026-04-21 21:18 | 12.06317 | 135.52139 | 35916 ft | 471 kts | 268° |
| 2026-04-21 21:19 | 12.06058 | 135.45467 | 35917 ft | 471 kts | 268° |
| 2026-04-21 21:19 | 12.05796 | 135.38784 | 35916 ft | 470 kts | 268° |
| 2026-04-21 21:20 | 12.05535 | 135.32113 | 35919 ft | 470 kts | 268° |
| 2026-04-21 21:20 | 12.05270 | 135.25449 | 35913 ft | 469 kts | 268° |
| 2026-04-21 21:21 | 12.05004 | 135.18799 | 35917 ft | 468 kts | 268° |
| 2026-04-21 21:21 | 12.04739 | 135.12162 | 35917 ft | 468 kts | 268° |
| 2026-04-21 21:22 | 12.04470 | 135.05520 | 35920 ft | 467 kts | 268° |
| 2026-04-21 21:22 | 12.04201 | 134.98895 | 35913 ft | 466 kts | 268° |
| 2026-04-21 21:23 | 12.03931 | 134.92282 | 35917 ft | 465 kts | 268° |
| 2026-04-21 21:23 | 12.03659 | 134.85681 | 35917 ft | 465 kts | 268° |
| 2026-04-21 21:24 | 12.03387 | 134.79087 | 35914 ft | 465 kts | 268° |
| 2026-04-21 21:24 | 12.03113 | 134.72498 | 35919 ft | 465 kts | 268° |
| 2026-04-21 21:25 | 12.02837 | 134.65889 | 35916 ft | 465 kts | 268° |
| 2026-04-21 21:25 | 12.02561 | 134.59325 | 35917 ft | 465 kts | 268° |
| 2026-04-21 21:26 | 12.02281 | 134.52702 | 35918 ft | 465 kts | 268° |
| 2026-04-21 21:26 | 12.02002 | 134.46141 | 35920 ft | 465 kts | 268° |
| 2026-04-21 21:27 | 12.01722 | 134.39543 | 35915 ft | 466 kts | 268° |
| 2026-04-21 21:27 | 12.01436 | 134.32888 | 35916 ft | 466 kts | 268° |
| 2026-04-21 21:28 | 12.01150 | 134.26288 | 35917 ft | 466 kts | 268° |
| 2026-04-21 21:29 | 12.00719 | 134.16394 | 35917 ft | 466 kts | 268° |
| 2026-04-21 21:29 | 12.00430 | 134.09777 | 35918 ft | 467 kts | 268° |
| 2026-04-21 21:30 | 12.00139 | 134.03155 | 35916 ft | 467 kts | 268° |
| 2026-04-21 21:30 | 11.99937 | 133.96529 | 35914 ft | 467 kts | 270° |
| 2026-04-21 21:31 | 11.99993 | 133.89887 | 35919 ft | 467 kts | 271° |
| 2026-04-21 21:31 | 12.00087 | 133.83255 | 35917 ft | 467 kts | 271° |
| 2026-04-21 21:32 | 12.00155 | 133.76638 | 35920 ft | 466 kts | 271° |
| 2026-04-21 21:32 | 12.00200 | 133.70012 | 35915 ft | 466 kts | 271° |
| 2026-04-21 21:33 | 12.00238 | 133.63385 | 35918 ft | 466 kts | 271° |
| 2026-04-21 21:33 | 12.00275 | 133.56778 | 35920 ft | 466 kts | 271° |
| 2026-04-21 21:34 | 12.00310 | 133.50159 | 35914 ft | 466 kts | 271° |
| 2026-04-21 21:34 | 12.00338 | 133.44653 | 35920 ft | 466 kts | 271° |
| 2026-04-21 21:35 | 12.00371 | 133.38050 | 35916 ft | 465 kts | 271° |
| 2026-04-21 21:35 | 12.00403 | 133.31450 | 35915 ft | 465 kts | 271° |
| 2026-04-21 21:36 | 12.00432 | 133.24849 | 35917 ft | 464 kts | 271° |
| 2026-04-21 21:36 | 12.00461 | 133.18255 | 35918 ft | 464 kts | 271° |
| 2026-04-21 21:37 | 12.00489 | 133.11674 | 35914 ft | 463 kts | 271° |
| 2026-04-21 21:37 | 12.00514 | 133.05104 | 35917 ft | 462 kts | 271° |
| 2026-04-21 21:38 | 12.00537 | 132.98541 | 35916 ft | 462 kts | 271° |
| 2026-04-21 21:38 | 12.00559 | 132.91985 | 35916 ft | 461 kts | 271° |
| 2026-04-21 21:39 | 12.00580 | 132.85471 | 35918 ft | 461 kts | 271° |
| 2026-04-21 21:39 | 12.00599 | 132.78930 | 35912 ft | 461 kts | 270° |
| 2026-04-21 21:40 | 12.00615 | 132.72392 | 35908 ft | 460 kts | 270° |
| 2026-04-21 21:40 | 12.00632 | 132.65845 | 35908 ft | 460 kts | 270° |
| 2026-04-21 21:41 | 12.00647 | 132.59311 | 35906 ft | 460 kts | 270° |
| 2026-04-21 21:41 | 12.00660 | 132.52779 | 35909 ft | 460 kts | 270° |
| 2026-04-21 21:42 | 12.00360 | 132.46281 | 35911 ft | 456 kts | 265° |
| 2026-04-21 21:42 | 11.99707 | 132.39840 | 35907 ft | 456 kts | 264° |
| 2026-04-21 21:43 | 11.99046 | 132.33414 | 35909 ft | 455 kts | 265° |
| 2026-04-21 21:43 | 11.98430 | 132.26976 | 35909 ft | 455 kts | 265° |
| 2026-04-21 21:44 | 11.97838 | 132.20528 | 35908 ft | 456 kts | 265° |
| 2026-04-21 21:44 | 11.97250 | 132.14075 | 35909 ft | 456 kts | 265° |
| 2026-04-21 21:45 | 11.96662 | 132.07627 | 35908 ft | 457 kts | 265° |
| 2026-04-21 21:45 | 11.96068 | 132.01162 | 35908 ft | 458 kts | 265° |
| 2026-04-21 21:46 | 11.95460 | 131.94733 | 35907 ft | 458 kts | 265° |
| 2026-04-21 21:46 | 11.94849 | 131.88256 | 35906 ft | 458 kts | 265° |
| 2026-04-21 21:47 | 11.94245 | 131.81780 | 35908 ft | 459 kts | 265° |
| 2026-04-21 21:47 | 11.93643 | 131.75294 | 35908 ft | 459 kts | 265° |
| 2026-04-21 21:48 | 11.93040 | 131.68799 | 35906 ft | 459 kts | 265° |
| 2026-04-21 21:48 | 11.92438 | 131.62318 | 35908 ft | 459 kts | 265° |
| 2026-04-21 21:49 | 11.91831 | 131.55829 | 35907 ft | 459 kts | 265° |
| 2026-04-21 21:49 | 11.91223 | 131.49342 | 35906 ft | 459 kts | 265° |
| 2026-04-21 21:50 | 11.90615 | 131.42856 | 35908 ft | 459 kts | 265° |
| 2026-04-21 21:50 | 11.90004 | 131.36358 | 35908 ft | 459 kts | 265° |
| 2026-04-21 21:51 | 11.89391 | 131.29870 | 35907 ft | 459 kts | 265° |
| 2026-04-21 21:51 | 11.88777 | 131.23382 | 35909 ft | 459 kts | 265° |
| 2026-04-21 21:52 | 11.88167 | 131.16936 | 35910 ft | 459 kts | 265° |
| 2026-04-21 21:52 | 11.87555 | 131.10405 | 35905 ft | 459 kts | 265° |
| 2026-04-21 21:53 | 11.86934 | 131.03919 | 35906 ft | 459 kts | 265° |
| 2026-04-21 21:53 | 11.86307 | 130.97486 | 35907 ft | 458 kts | 265° |
| 2026-04-21 21:54 | 11.85683 | 130.91017 | 35906 ft | 458 kts | 265° |
| 2026-04-21 21:54 | 11.85062 | 130.84551 | 35907 ft | 458 kts | 265° |
| 2026-04-21 21:55 | 11.84439 | 130.78088 | 35909 ft | 457 kts | 265° |
| 2026-04-21 21:55 | 11.83818 | 130.71642 | 35908 ft | 457 kts | 265° |
| 2026-04-21 21:56 | 11.83194 | 130.65185 | 35907 ft | 456 kts | 265° |
| 2026-04-21 21:56 | 11.82571 | 130.58743 | 35907 ft | 456 kts | 265° |
| 2026-04-21 21:57 | 11.81945 | 130.52306 | 35910 ft | 456 kts | 265° |
| 2026-04-21 21:57 | 11.81319 | 130.45865 | 35906 ft | 456 kts | 265° |
| 2026-04-21 21:58 | 11.80692 | 130.39435 | 35907 ft | 455 kts | 265° |
| 2026-04-21 21:58 | 11.80062 | 130.33001 | 35906 ft | 455 kts | 265° |
| 2026-04-21 21:59 | 11.79433 | 130.26576 | 35912 ft | 455 kts | 265° |
| 2026-04-21 21:59 | 11.78802 | 130.20154 | 35906 ft | 455 kts | 264° |
| 2026-04-21 22:00 | 11.78174 | 130.13777 | 35909 ft | 455 kts | 264° |
| 2026-04-21 22:00 | 11.77541 | 130.07357 | 35901 ft | 455 kts | 264° |
| 2026-04-21 22:01 | 11.76907 | 130.00937 | 35898 ft | 455 kts | 264° |
| 2026-04-21 22:01 | 11.76272 | 129.94519 | 35909 ft | 454 kts | 264° |
| 2026-04-21 22:02 | 11.75083 | 129.82576 | 35920 ft | 453 kts | 264° |
| 2026-04-21 22:02 | 11.72520 | 129.56977 | 35919 ft | 453 kts | 264° |
| 2026-04-21 22:03 | 11.69940 | 129.31435 | 35919 ft | 453 kts | 264° |
| 2026-04-21 22:03 | 11.67329 | 129.05821 | 35917 ft | 454 kts | 264° |
| 2026-04-21 22:04 | 11.64695 | 128.80209 | 35922 ft | 454 kts | 264° |
| 2026-04-21 22:04 | 11.62031 | 128.54530 | 35919 ft | 455 kts | 264° |
| 2026-04-21 22:05 | 11.59337 | 128.28783 | 35918 ft | 456 kts | 264° |
| 2026-04-21 22:05 | 11.56620 | 128.03052 | 35919 ft | 457 kts | 264° |
| 2026-04-21 22:06 | 11.53876 | 127.77281 | 35918 ft | 457 kts | 264° |
| 2026-04-21 22:06 | 11.51106 | 127.51475 | 35916 ft | 457 kts | 264° |
| 2026-04-21 22:07 | 11.48313 | 127.25666 | 35919 ft | 457 kts | 264° |
| 2026-04-21 22:07 | 11.45499 | 126.99900 | 35925 ft | 457 kts | 264° |
| 2026-04-21 22:08 | 11.42662 | 126.74120 | 35913 ft | 457 kts | 263° |
| 2026-04-21 22:08 | 11.39828 | 126.48573 | 35917 ft | 457 kts | 263° |
| 2026-04-21 22:09 | 11.36952 | 126.22855 | 35915 ft | 456 kts | 263° |
| 2026-04-21 22:09 | 11.34054 | 125.97150 | 35918 ft | 456 kts | 263° |
| 2026-04-21 22:10 | 11.31142 | 125.71525 | 35927 ft | 456 kts | 263° |
| 2026-04-21 22:10 | 11.28207 | 125.45888 | 35915 ft | 456 kts | 263° |
| 2026-04-21 22:11 | 11.25246 | 125.20230 | 35922 ft | 456 kts | 263° |
| 2026-04-21 22:11 | 11.21677 | 124.94631 | 35913 ft | 456 kts | 256° |
| 2026-04-21 22:12 | 11.15570 | 124.69611 | 35921 ft | 455 kts | 257° |
| 2026-04-21 22:12 | 11.13686 | 124.61354 | 35909 ft | 455 kts | 257° |
| 2026-04-21 22:12 | 11.12964 | 124.58218 | 35784 ft | 452 kts | 257° |
| 2026-04-21 22:13 | 11.12244 | 124.55102 | 35111 ft | 452 kts | 257° |
| 2026-04-21 22:13 | 11.11524 | 124.51994 | 34521 ft | 452 kts | 257° |
| 2026-04-21 22:13 | 11.10801 | 124.48875 | 33889 ft | 452 kts | 257° |
| 2026-04-21 22:13 | 11.10079 | 124.45758 | 33218 ft | 453 kts | 257° |
| 2026-04-21 22:14 | 11.09356 | 124.42637 | 32556 ft | 454 kts | 256° |
| 2026-04-21 22:14 | 11.08630 | 124.39506 | 31912 ft | 454 kts | 256° |
| 2026-04-21 22:14 | 11.07872 | 124.36387 | 31285 ft | 454 kts | 251° |
| 2026-04-21 22:14 | 11.06523 | 124.33500 | 30593 ft | 454 kts | 235° |
| 2026-04-21 22:15 | 11.04449 | 124.31078 | 29958 ft | 453 kts | 224° |
| 2026-04-21 22:15 | 11.02181 | 124.28852 | 29123 ft | 456 kts | 223° |
| 2026-04-21 22:15 | 10.99850 | 124.26615 | 27921 ft | 466 kts | 223° |
| 2026-04-21 22:15 | 10.97491 | 124.24352 | 26621 ft | 478 kts | 223° |
| 2026-04-21 22:16 | 10.95025 | 124.21966 | 25291 ft | 488 kts | 223° |
| 2026-04-21 22:16 | 10.92600 | 124.19597 | 24308 ft | 489 kts | 224° |
| 2026-04-21 22:16 | 10.90165 | 124.17201 | 23620 ft | 484 kts | 224° |
| 2026-04-21 22:16 | 10.87741 | 124.14807 | 22989 ft | 476 kts | 224° |
| 2026-04-21 22:17 | 10.85383 | 124.12477 | 22347 ft | 470 kts | 224° |
| 2026-04-21 22:17 | 10.83079 | 124.10200 | 21683 ft | 464 kts | 224° |
| 2026-04-21 22:17 | 10.80747 | 124.07897 | 21019 ft | 459 kts | 224° |
| 2026-04-21 22:17 | 10.78499 | 124.05679 | 20378 ft | 453 kts | 224° |
| 2026-04-21 22:18 | 10.76222 | 124.03434 | 19743 ft | 447 kts | 224° |
| 2026-04-21 22:18 | 10.74025 | 124.01267 | 18811 ft | 448 kts | 224° |
| 2026-04-21 22:18 | 10.71796 | 123.99070 | 17960 ft | 441 kts | 224° |
| 2026-04-21 22:18 | 10.69660 | 123.96965 | 17748 ft | 414 kts | 224° |
| 2026-04-21 22:19 | 10.67627 | 123.94962 | 16852 ft | 405 kts | 224° |
| 2026-04-21 22:19 | 10.65606 | 123.92971 | 15791 ft | 404 kts | 224° |
| 2026-04-21 22:19 | 10.63597 | 123.90992 | 14728 ft | 401 kts | 224° |
| 2026-04-21 22:19 | 10.61598 | 123.89023 | 13660 ft | 398 kts | 224° |
| 2026-04-21 22:20 | 10.59619 | 123.87075 | 12591 ft | 395 kts | 224° |
| 2026-04-21 22:20 | 10.57660 | 123.85147 | 11819 ft | 385 kts | 224° |
| 2026-04-21 22:20 | 10.55786 | 123.83304 | 11529 ft | 364 kts | 224° |
| 2026-04-21 22:20 | 10.54017 | 123.81566 | 11323 ft | 344 kts | 224° |
| 2026-04-21 22:21 | 10.52338 | 123.79914 | 11128 ft | 327 kts | 223° |
| 2026-04-21 22:21 | 10.50745 | 123.78347 | 10958 ft | 310 kts | 223° |
| 2026-04-21 22:21 | 10.49234 | 123.76859 | 10767 ft | 297 kts | 223° |
| 2026-04-21 22:21 | 10.47760 | 123.75410 | 10335 ft | 293 kts | 223° |
| 2026-04-21 22:22 | 10.46294 | 123.73970 | 9825 ft | 293 kts | 223° |
| 2026-04-21 22:22 | 10.44835 | 123.72536 | 9358 ft | 291 kts | 223° |
| 2026-04-21 22:22 | 10.43384 | 123.71109 | 8882 ft | 290 kts | 222° |
| 2026-04-21 22:22 | 10.41937 | 123.69686 | 8411 ft | 289 kts | 222° |
| 2026-04-21 22:23 | 10.40314 | 123.68538 | 7903 ft | 283 kts | 195° |
| 2026-04-21 22:23 | 10.38408 | 123.68436 | 7438 ft | 273 kts | 163° |
| 2026-04-21 22:23 | 10.36621 | 123.69028 | 7033 ft | 268 kts | 157° |
| 2026-04-21 22:23 | 10.34891 | 123.69707 | 6634 ft | 265 kts | 156° |
| 2026-04-21 22:24 | 10.33768 | 123.70156 | 6367 ft | 263 kts | 156° |
| 2026-04-21 22:24 | 10.32066 | 123.70827 | 5961 ft | 260 kts | 156° |
| 2026-04-21 22:24 | 10.30404 | 123.71477 | 5650 ft | 254 kts | 156° |
| 2026-04-21 22:24 | 10.28763 | 123.72111 | 5325 ft | 250 kts | 156° |
| 2026-04-21 22:25 | 10.27154 | 123.72726 | 5010 ft | 244 kts | 156° |
| 2026-04-21 22:25 | 10.25583 | 123.73325 | 4737 ft | 239 kts | 156° |
| 2026-04-21 22:25 | 10.24048 | 123.73909 | 4507 ft | 232 kts | 156° |
| 2026-04-21 22:25 | 10.22601 | 123.74550 | 4265 ft | 221 kts | 140° |
| 2026-04-21 22:26 | 10.21532 | 123.75601 | 4101 ft | 211 kts | 130° |
| 2026-04-21 22:26 | 10.20507 | 123.76669 | 3867 ft | 211 kts | 131° |
| 2026-04-21 22:26 | 10.19485 | 123.77714 | 3633 ft | 207 kts | 131° |
| 2026-04-21 22:26 | 10.18470 | 123.78740 | 3403 ft | 203 kts | 131° |
| 2026-04-21 22:27 | 10.17666 | 123.79875 | 3138 ft | 195 kts | 98° |
| 2026-04-21 22:27 | 10.17890 | 123.81141 | 2992 ft | 180 kts | 61° |
| 2026-04-21 22:27 | 10.18474 | 123.82289 | 2774 ft | 187 kts | 64° |
| 2026-04-21 22:27 | 10.19023 | 123.83470 | 2570 ft | 182 kts | 64° |
| 2026-04-21 22:28 | 10.19548 | 123.84598 | 2493 ft | 170 kts | 64° |
| 2026-04-21 22:28 | 10.20051 | 123.85678 | 2511 ft | 171 kts | 64° |
| 2026-04-21 22:28 | 10.20552 | 123.86753 | 2508 ft | 170 kts | 64° |
| 2026-04-21 22:28 | 10.21083 | 123.87826 | 2474 ft | 163 kts | 54° |
| 2026-04-21 22:29 | 10.21830 | 123.88645 | 2373 ft | 160 kts | 46° |
| 2026-04-21 22:29 | 10.22603 | 123.89455 | 2167 ft | 157 kts | 45° |
| 2026-04-21 22:29 | 10.23350 | 123.90224 | 1976 ft | 150 kts | 45° |
| 2026-04-21 22:29 | 10.24068 | 123.90953 | 1823 ft | 145 kts | 44° |
| 2026-04-21 22:30 | 10.24798 | 123.91688 | 1587 ft | 148 kts | 44° |
| 2026-04-21 22:30 | 10.25527 | 123.92421 | 1386 ft | 150 kts | 44° |
| 2026-04-21 22:30 | 10.26281 | 123.93179 | 1177 ft | 150 kts | 44° |
| 2026-04-21 22:30 | 10.27001 | 123.93904 | 993 ft | 147 kts | 44° |
| 2026-04-21 22:31 | 10.27744 | 123.94662 | 817 ft | 159 kts | 44° |
| 2026-04-21 22:31 | 10.28535 | 123.95449 | 576 ft | 152 kts | 44° |
| 2026-04-21 22:31 | 10.29281 | 123.96196 | 381 ft | 155 kts | 43° |
| 2026-04-21 22:31 | 10.30052 | 123.96968 | 144 ft | 156 kts | 44° |
| 2026-04-21 22:32 | 10.30797 | 123.97717 | 35 ft | 136 kts | 44° |
| 2026-04-21 22:32 | 10.31221 | 123.98133 | 36 ft | 39 kts | 46° |
| 2026-04-21 22:32 | 10.31355 | 123.98274 | 39 ft | 13 kts | 36° |
| 2026-04-21 22:32 | 10.31438 | 123.98276 | 39 ft | 13 kts | 319° |
| 2026-04-21 22:33 | 10.31509 | 123.98210 | 37 ft | 14 kts | 308° |
| 2026-04-21 22:33 | 10.31570 | 123.98134 | 37 ft | 14 kts | 289° |
| 2026-04-21 22:33 | 10.31529 | 123.98064 | 35 ft | 12 kts | 231° |
| 2026-04-21 22:33 | 10.31520 | 123.98015 | 36 ft | 5 kts | 315° |
| 2026-04-21 22:34 | 10.31544 | 123.97991 | 36 ft | 5 kts | 318° |
| 2026-04-21 22:34 | 10.31555 | 123.97980 | 38 ft | 0 kts | 316° |